sensor_id;sensor_type;location;lat;lon;timestamp;temperature;humidity
45765;DHT22;31474;45.332;10.230;2022-08-19T00:01:07;22.10;99.90
45765;DHT22;31474;45.332;10.230;2022-08-19T00:03:34;22.10;99.90
45765;DHT22;31474;45.332;10.230;2022-08-19T00:05:59;22.10;99.90
45765;DHT22;31474;45.332;10.230;2022-08-19T00:08:25;22.00;99.90
45765;DHT22;31474;45.332;10.230;2022-08-19T00:10:51;22.00;99.90
45765;DHT22;31474;45.332;10.230;2022-08-19T00:13:17;22.00;99.90
45765;DHT22;31474;45.332;10.230;2022-08-19T00:15:44;22.00;99.90
45765;DHT22;31474;45.332;10.230;2022-08-19T00:18:10;22.00;99.90
45765;DHT22;31474;45.332;10.230;2022-08-19T00:20:36;22.00;99.90
45765;DHT22;31474;45.332;10.230;2022-08-19T00:23:03;22.10;99.90
45765;DHT22;31474;45.332;10.230;2022-08-19T00:25:29;22.10;99.90
45765;DHT22;31474;45.332;10.230;2022-08-19T00:27:54;22.10;99.90
45765;DHT22;31474;45.332;10.230;2022-08-19T00:30:21;22.10;99.90
45765;DHT22;31474;45.332;10.230;2022-08-19T00:32:46;22.10;99.90
45765;DHT22;31474;45.332;10.230;2022-08-19T00:35:12;22.10;99.90
45765;DHT22;31474;45.332;10.230;2022-08-19T00:37:38;22.10;99.90
45765;DHT22;31474;45.332;10.230;2022-08-19T00:40:09;22.10;99.90
45765;DHT22;31474;45.332;10.230;2022-08-19T00:42:35;22.10;99.90
45765;DHT22;31474;45.332;10.230;2022-08-19T00:45:02;22.20;99.90
45765;DHT22;31474;45.332;10.230;2022-08-19T00:47:28;22.10;99.90
45765;DHT22;31474;45.332;10.230;2022-08-19T00:49:56;22.10;99.90
45765;DHT22;31474;45.332;10.230;2022-08-19T00:52:38;22.20;99.90
45765;DHT22;31474;45.332;10.230;2022-08-19T00:55:08;22.20;99.90
45765;DHT22;31474;45.332;10.230;2022-08-19T00:57:39;22.20;99.90
45765;DHT22;31474;45.332;10.230;2022-08-19T01:00:09;22.20;99.90
45765;DHT22;31474;45.332;10.230;2022-08-19T01:02:37;22.20;99.90
45765;DHT22;31474;45.332;10.230;2022-08-19T01:05:08;22.20;99.90
45765;DHT22;31474;45.332;10.230;2022-08-19T01:07:37;22.20;99.90
45765;DHT22;31474;45.332;10.230;2022-08-19T01:10:09;22.10;99.90
45765;DHT22;31474;45.332;10.230;2022-08-19T01:12:36;22.10;99.90
45765;DHT22;31474;45.332;10.230;2022-08-19T01:15:03;22.10;99.90
45765;DHT22;31474;45.332;10.230;2022-08-19T01:17:29;22.10;99.90
45765;DHT22;31474;45.332;10.230;2022-08-19T01:19:55;22.20;99.90
45765;DHT22;31474;45.332;10.230;2022-08-19T01:24:50;22.00;99.90
45765;DHT22;31474;45.332;10.230;2022-08-19T01:27:17;22.00;99.90
45765;DHT22;31474;45.332;10.230;2022-08-19T01:29:43;22.10;99.90
45765;DHT22;31474;45.332;10.230;2022-08-19T01:32:13;22.10;99.90
45765;DHT22;31474;45.332;10.230;2022-08-19T01:34:40;22.10;99.90
45765;DHT22;31474;45.332;10.230;2022-08-19T01:37:11;22.10;99.90
45765;DHT22;31474;45.332;10.230;2022-08-19T01:39:39;22.10;99.90
45765;DHT22;31474;45.332;10.230;2022-08-19T01:42:06;22.00;99.90
45765;DHT22;31474;45.332;10.230;2022-08-19T01:44:34;22.00;99.90
45765;DHT22;31474;45.332;10.230;2022-08-19T01:47:02;22.00;99.90
45765;DHT22;31474;45.332;10.230;2022-08-19T01:49:29;21.90;99.90
45765;DHT22;31474;45.332;10.230;2022-08-19T01:51:54;21.90;99.90
45765;DHT22;31474;45.332;10.230;2022-08-19T01:54:22;21.90;99.90
45765;DHT22;31474;45.332;10.230;2022-08-19T01:56:50;21.90;99.90
45765;DHT22;31474;45.332;10.230;2022-08-19T01:59:18;21.90;99.90
45765;DHT22;31474;45.332;10.230;2022-08-19T02:01:44;21.90;99.90
45765;DHT22;31474;45.332;10.230;2022-08-19T02:04:10;21.90;99.90
45765;DHT22;31474;45.332;10.230;2022-08-19T02:06:36;21.80;99.90
45765;DHT22;31474;45.332;10.230;2022-08-19T02:09:04;21.80;99.90
45765;DHT22;31474;45.332;10.230;2022-08-19T02:11:32;21.80;99.90
45765;DHT22;31474;45.332;10.230;2022-08-19T02:14:00;21.80;99.90
45765;DHT22;31474;45.332;10.230;2022-08-19T02:16:28;21.80;99.90
45765;DHT22;31474;45.332;10.230;2022-08-19T02:18:53;21.80;99.90
45765;DHT22;31474;45.332;10.230;2022-08-19T02:21:21;21.80;99.90
45765;DHT22;31474;45.332;10.230;2022-08-19T02:23:48;21.80;99.90
45765;DHT22;31474;45.332;10.230;2022-08-19T02:26:14;21.90;99.90
45765;DHT22;31474;45.332;10.230;2022-08-19T02:28:41;21.90;99.90
45765;DHT22;31474;45.332;10.230;2022-08-19T02:31:16;21.80;99.90
45765;DHT22;31474;45.332;10.230;2022-08-19T02:33:43;21.80;99.90
45765;DHT22;31474;45.332;10.230;2022-08-19T02:36:10;21.80;99.90
45765;DHT22;31474;45.332;10.230;2022-08-19T02:38:36;21.90;99.90
45765;DHT22;31474;45.332;10.230;2022-08-19T02:41:19;21.90;99.90
45765;DHT22;31474;45.332;10.230;2022-08-19T02:43:45;21.90;99.90
45765;DHT22;31474;45.332;10.230;2022-08-19T02:46:23;22.00;99.90
45765;DHT22;31474;45.332;10.230;2022-08-19T02:48:51;21.90;99.90
45765;DHT22;31474;45.332;10.230;2022-08-19T02:51:28;21.90;99.90
45765;DHT22;31474;45.332;10.230;2022-08-19T02:53:54;21.90;99.90
45765;DHT22;31474;45.332;10.230;2022-08-19T02:56:21;21.80;99.90
45765;DHT22;31474;45.332;10.230;2022-08-19T02:58:47;21.90;99.90
45765;DHT22;31474;45.332;10.230;2022-08-19T03:01:34;21.90;99.90
45765;DHT22;31474;45.332;10.230;2022-08-19T03:04:02;21.90;99.90
45765;DHT22;31474;45.332;10.230;2022-08-19T03:06:28;21.90;99.90
45765;DHT22;31474;45.332;10.230;2022-08-19T03:08:55;22.00;99.90
45765;DHT22;31474;45.332;10.230;2022-08-19T03:11:26;22.00;99.90
45765;DHT22;31474;45.332;10.230;2022-08-19T03:13:53;22.00;99.90
45765;DHT22;31474;45.332;10.230;2022-08-19T03:16:21;22.00;99.90
45765;DHT22;31474;45.332;10.230;2022-08-19T03:18:47;22.00;99.90
45765;DHT22;31474;45.332;10.230;2022-08-19T03:21:22;22.00;99.90
45765;DHT22;31474;45.332;10.230;2022-08-19T03:23:49;22.10;99.90
45765;DHT22;31474;45.332;10.230;2022-08-19T03:26:15;22.10;99.90
45765;DHT22;31474;45.332;10.230;2022-08-19T03:28:42;22.10;99.90
45765;DHT22;31474;45.332;10.230;2022-08-19T03:31:13;22.10;99.90
45765;DHT22;31474;45.332;10.230;2022-08-19T03:33:40;22.10;99.90
45765;DHT22;31474;45.332;10.230;2022-08-19T03:36:16;22.10;99.90
45765;DHT22;31474;45.332;10.230;2022-08-19T03:38:45;22.10;99.90
45765;DHT22;31474;45.332;10.230;2022-08-19T03:41:19;22.10;99.90
45765;DHT22;31474;45.332;10.230;2022-08-19T03:43:46;22.20;99.90
45765;DHT22;31474;45.332;10.230;2022-08-19T03:46:16;22.20;99.90
45765;DHT22;31474;45.332;10.230;2022-08-19T03:48:43;22.20;99.90
45765;DHT22;31474;45.332;10.230;2022-08-19T03:51:22;22.20;99.90
45765;DHT22;31474;45.332;10.230;2022-08-19T03:53:48;22.20;99.90
45765;DHT22;31474;45.332;10.230;2022-08-19T03:56:14;22.20;99.90
45765;DHT22;31474;45.332;10.230;2022-08-19T03:58:41;22.10;99.90
45765;DHT22;31474;45.332;10.230;2022-08-19T04:01:13;22.10;99.90
45765;DHT22;31474;45.332;10.230;2022-08-19T04:03:39;22.10;99.90
45765;DHT22;31474;45.332;10.230;2022-08-19T04:06:26;22.00;99.90
45765;DHT22;31474;45.332;10.230;2022-08-19T04:08:54;21.90;99.90
45765;DHT22;31474;45.332;10.230;2022-08-19T04:11:23;21.70;99.90
45765;DHT22;31474;45.332;10.230;2022-08-19T04:13:52;21.60;99.90
45765;DHT22;31474;45.332;10.230;2022-08-19T04:16:21;21.50;99.90
45765;DHT22;31474;45.332;10.230;2022-08-19T04:18:48;21.30;99.90
45765;DHT22;31474;45.332;10.230;2022-08-19T04:21:22;21.20;99.90
45765;DHT22;31474;45.332;10.230;2022-08-19T04:23:48;21.00;99.90
45765;DHT22;31474;45.332;10.230;2022-08-19T04:26:16;20.80;99.90
45765;DHT22;31474;45.332;10.230;2022-08-19T04:28:43;20.60;99.90
45765;DHT22;31474;45.332;10.230;2022-08-19T04:31:14;20.30;99.90
45765;DHT22;31474;45.332;10.230;2022-08-19T04:33:40;20.20;99.90
45765;DHT22;31474;45.332;10.230;2022-08-19T04:36:06;20.10;99.90
45765;DHT22;31474;45.332;10.230;2022-08-19T04:38:33;20.10;99.90
45765;DHT22;31474;45.332;10.230;2022-08-19T04:40:58;20.00;99.90
45765;DHT22;31474;45.332;10.230;2022-08-19T04:43:44;20.00;99.90
45765;DHT22;31474;45.332;10.230;2022-08-19T04:46:13;19.90;99.90
45765;DHT22;31474;45.332;10.230;2022-08-19T04:48:39;19.80;99.90
45765;DHT22;31474;45.332;10.230;2022-08-19T04:51:08;19.80;99.90
45765;DHT22;31474;45.332;10.230;2022-08-19T04:53:37;19.80;99.90
45765;DHT22;31474;45.332;10.230;2022-08-19T04:56:15;19.90;99.90
45765;DHT22;31474;45.332;10.230;2022-08-19T04:58:43;19.80;99.90
45765;DHT22;31474;45.332;10.230;2022-08-19T05:01:17;19.80;99.90
45765;DHT22;31474;45.332;10.230;2022-08-19T05:03:43;19.80;99.90
45765;DHT22;31474;45.332;10.230;2022-08-19T05:06:12;19.80;99.90
45765;DHT22;31474;45.332;10.230;2022-08-19T05:08:39;19.80;99.90
45765;DHT22;31474;45.332;10.230;2022-08-19T05:11:30;19.90;99.90
45765;DHT22;31474;45.332;10.230;2022-08-19T05:13:57;19.90;99.90
45765;DHT22;31474;45.332;10.230;2022-08-19T05:16:24;20.00;99.90
45765;DHT22;31474;45.332;10.230;2022-08-19T05:18:50;20.00;99.90
45765;DHT22;31474;45.332;10.230;2022-08-19T05:21:35;20.10;99.90
45765;DHT22;31474;45.332;10.230;2022-08-19T05:24:21;20.10;99.90
45765;DHT22;31474;45.332;10.230;2022-08-19T05:26:48;20.10;99.90
45765;DHT22;31474;45.332;10.230;2022-08-19T05:29:17;20.00;99.90
45765;DHT22;31474;45.332;10.230;2022-08-19T05:31:44;20.10;99.90
45765;DHT22;31474;45.332;10.230;2022-08-19T05:34:11;20.10;99.90
45765;DHT22;31474;45.332;10.230;2022-08-19T05:36:40;20.10;99.90
45765;DHT22;31474;45.332;10.230;2022-08-19T05:39:12;20.00;99.90
45765;DHT22;31474;45.332;10.230;2022-08-19T05:41:47;20.00;99.90
45765;DHT22;31474;45.332;10.230;2022-08-19T05:44:13;20.10;99.90
45765;DHT22;31474;45.332;10.230;2022-08-19T05:46:40;20.30;99.90
45765;DHT22;31474;45.332;10.230;2022-08-19T05:49:08;20.40;99.90
45765;DHT22;31474;45.332;10.230;2022-08-19T05:51:35;20.40;99.90
45765;DHT22;31474;45.332;10.230;2022-08-19T05:54:04;20.30;99.90
45765;DHT22;31474;45.332;10.230;2022-08-19T05:56:31;20.20;99.90
45765;DHT22;31474;45.332;10.230;2022-08-19T05:58:58;20.20;99.90
45765;DHT22;31474;45.332;10.230;2022-08-19T06:01:25;20.20;99.90
45765;DHT22;31474;45.332;10.230;2022-08-19T06:03:52;20.20;99.90
45765;DHT22;31474;45.332;10.230;2022-08-19T06:06:18;20.20;99.90
45765;DHT22;31474;45.332;10.230;2022-08-19T06:08:44;20.20;99.90
45765;DHT22;31474;45.332;10.230;2022-08-19T06:11:22;20.20;99.90
45765;DHT22;31474;45.332;10.230;2022-08-19T06:13:52;20.20;99.90
45765;DHT22;31474;45.332;10.230;2022-08-19T06:16:19;20.30;99.90
45765;DHT22;31474;45.332;10.230;2022-08-19T06:18:52;20.30;99.90
45765;DHT22;31474;45.332;10.230;2022-08-19T06:21:24;20.40;99.90
45765;DHT22;31474;45.332;10.230;2022-08-19T06:23:50;20.40;99.90
45765;DHT22;31474;45.332;10.230;2022-08-19T06:26:17;20.50;99.90
45765;DHT22;31474;45.332;10.230;2022-08-19T06:28:44;20.50;99.90
45765;DHT22;31474;45.332;10.230;2022-08-19T06:31:32;20.50;99.90
45765;DHT22;31474;45.332;10.230;2022-08-19T06:34:00;20.60;99.90
45765;DHT22;31474;45.332;10.230;2022-08-19T06:36:30;20.60;99.90
45765;DHT22;31474;45.332;10.230;2022-08-19T06:39:10;20.70;99.90
45765;DHT22;31474;45.332;10.230;2022-08-19T06:41:39;20.70;99.90
45765;DHT22;31474;45.332;10.230;2022-08-19T06:44:06;20.70;99.90
45765;DHT22;31474;45.332;10.230;2022-08-19T06:46:32;20.80;99.90
45765;DHT22;31474;45.332;10.230;2022-08-19T06:48:59;20.80;99.90
45765;DHT22;31474;45.332;10.230;2022-08-19T06:51:25;20.90;99.90
45765;DHT22;31474;45.332;10.230;2022-08-19T06:53:53;20.90;99.90
45765;DHT22;31474;45.332;10.230;2022-08-19T06:56:21;20.90;99.90
45765;DHT22;31474;45.332;10.230;2022-08-19T06:58:48;20.90;99.90
45765;DHT22;31474;45.332;10.230;2022-08-19T07:01:17;20.90;99.90
45765;DHT22;31474;45.332;10.230;2022-08-19T07:03:43;20.90;99.90
45765;DHT22;31474;45.332;10.230;2022-08-19T07:06:15;21.00;99.90
45765;DHT22;31474;45.332;10.230;2022-08-19T07:08:47;21.00;99.90
45765;DHT22;31474;45.332;10.230;2022-08-19T07:11:16;21.00;99.90
45765;DHT22;31474;45.332;10.230;2022-08-19T07:13:43;21.10;99.90
45765;DHT22;31474;45.332;10.230;2022-08-19T07:16:13;21.10;99.90
45765;DHT22;31474;45.332;10.230;2022-08-19T07:18:40;21.10;99.90
45765;DHT22;31474;45.332;10.230;2022-08-19T07:21:11;21.10;99.90
45765;DHT22;31474;45.332;10.230;2022-08-19T07:23:37;21.10;99.90
45765;DHT22;31474;45.332;10.230;2022-08-19T07:26:08;21.10;99.90
45765;DHT22;31474;45.332;10.230;2022-08-19T07:28:34;21.10;99.90
45765;DHT22;31474;45.332;10.230;2022-08-19T07:31:05;21.20;99.90
45765;DHT22;31474;45.332;10.230;2022-08-19T07:33:31;21.10;99.90
45765;DHT22;31474;45.332;10.230;2022-08-19T07:35:58;21.20;99.90
45765;DHT22;31474;45.332;10.230;2022-08-19T07:38:24;21.20;99.90
45765;DHT22;31474;45.332;10.230;2022-08-19T07:40:50;21.20;99.90
45765;DHT22;31474;45.332;10.230;2022-08-19T07:43:17;21.20;99.90
45765;DHT22;31474;45.332;10.230;2022-08-19T07:45:51;21.30;99.90
45765;DHT22;31474;45.332;10.230;2022-08-19T07:48:18;21.30;99.90
45765;DHT22;31474;45.332;10.230;2022-08-19T07:50:44;21.30;99.90
45765;DHT22;31474;45.332;10.230;2022-08-19T07:53:09;21.40;99.90
45765;DHT22;31474;45.332;10.230;2022-08-19T07:55:37;21.40;99.90
45765;DHT22;31474;45.332;10.230;2022-08-19T07:58:02;21.40;99.90
45765;DHT22;31474;45.332;10.230;2022-08-19T08:00:30;21.40;99.90
45765;DHT22;31474;45.332;10.230;2022-08-19T08:02:56;21.50;99.90
45765;DHT22;31474;45.332;10.230;2022-08-19T08:05:23;21.60;99.90
45765;DHT22;31474;45.332;10.230;2022-08-19T08:08:07;21.50;99.90
45765;DHT22;31474;45.332;10.230;2022-08-19T08:11:08;21.50;99.90
45765;DHT22;31474;45.332;10.230;2022-08-19T08:13:34;21.50;99.90
45765;DHT22;31474;45.332;10.230;2022-08-19T08:16:03;21.40;99.90
45765;DHT22;31474;45.332;10.230;2022-08-19T08:18:29;21.40;99.90
45765;DHT22;31474;45.332;10.230;2022-08-19T08:20:55;21.40;99.90
45765;DHT22;31474;45.332;10.230;2022-08-19T08:23:21;21.40;99.90
45765;DHT22;31474;45.332;10.230;2022-08-19T08:25:56;21.50;99.90
45765;DHT22;31474;45.332;10.230;2022-08-19T08:28:23;21.40;99.90
45765;DHT22;31474;45.332;10.230;2022-08-19T08:30:49;21.40;99.90
45765;DHT22;31474;45.332;10.230;2022-08-19T08:33:20;21.40;99.90
45765;DHT22;31474;45.332;10.230;2022-08-19T08:35:47;21.40;99.90
45765;DHT22;31474;45.332;10.230;2022-08-19T08:38:13;21.40;99.90
45765;DHT22;31474;45.332;10.230;2022-08-19T08:40:47;21.40;99.90
45765;DHT22;31474;45.332;10.230;2022-08-19T08:43:33;21.40;99.90
45765;DHT22;31474;45.332;10.230;2022-08-19T08:48:42;21.50;99.90
45765;DHT22;31474;45.332;10.230;2022-08-19T08:51:28;21.50;99.90
45765;DHT22;31474;45.332;10.230;2022-08-19T08:53:54;21.60;99.90
45765;DHT22;31474;45.332;10.230;2022-08-19T08:56:21;21.50;99.90
45765;DHT22;31474;45.332;10.230;2022-08-19T08:59:16;21.50;99.90
45765;DHT22;31474;45.332;10.230;2022-08-19T09:01:45;21.50;99.90
45765;DHT22;31474;45.332;10.230;2022-08-19T09:04:12;21.50;99.90
45765;DHT22;31474;45.332;10.230;2022-08-19T09:09:40;21.40;99.90
45765;DHT22;31474;45.332;10.230;2022-08-19T09:12:16;21.50;99.90
45765;DHT22;31474;45.332;10.230;2022-08-19T09:14:59;21.50;99.90
45765;DHT22;31474;45.332;10.230;2022-08-19T09:17:28;21.50;99.90
45765;DHT22;31474;45.332;10.230;2022-08-19T09:22:37;21.60;99.90
45765;DHT22;31474;45.332;10.230;2022-08-19T09:25:04;21.70;99.90
45765;DHT22;31474;45.332;10.230;2022-08-19T09:27:31;21.70;99.90
45765;DHT22;31474;45.332;10.230;2022-08-19T09:29:57;21.70;99.90
45765;DHT22;31474;45.332;10.230;2022-08-19T09:32:23;21.70;99.90
45765;DHT22;31474;45.332;10.230;2022-08-19T09:34:50;21.60;99.90
45765;DHT22;31474;45.332;10.230;2022-08-19T09:37:18;21.70;99.90
45765;DHT22;31474;45.332;10.230;2022-08-19T09:39:44;21.70;99.90
45765;DHT22;31474;45.332;10.230;2022-08-19T09:42:09;21.70;99.90
45765;DHT22;31474;45.332;10.230;2022-08-19T09:44:41;21.70;99.90
45765;DHT22;31474;45.332;10.230;2022-08-19T09:47:09;21.80;99.90
45765;DHT22;31474;45.332;10.230;2022-08-19T09:49:35;21.90;99.90
45765;DHT22;31474;45.332;10.230;2022-08-19T09:52:01;21.90;99.90
45765;DHT22;31474;45.332;10.230;2022-08-19T09:54:27;22.00;99.90
45765;DHT22;31474;45.332;10.230;2022-08-19T09:56:53;22.10;99.90
45765;DHT22;31474;45.332;10.230;2022-08-19T09:59:19;22.10;99.90
45765;DHT22;31474;45.332;10.230;2022-08-19T10:01:44;22.30;99.90
45765;DHT22;31474;45.332;10.230;2022-08-19T10:04:10;22.40;99.90
45765;DHT22;31474;45.332;10.230;2022-08-19T10:06:39;22.40;99.90
45765;DHT22;31474;45.332;10.230;2022-08-19T10:09:07;22.50;99.90
45765;DHT22;31474;45.332;10.230;2022-08-19T10:11:34;22.60;99.90
45765;DHT22;31474;45.332;10.230;2022-08-19T10:14:01;22.70;99.90
45765;DHT22;31474;45.332;10.230;2022-08-19T10:16:27;22.80;99.90
45765;DHT22;31474;45.332;10.230;2022-08-19T10:18:53;22.90;99.90
45765;DHT22;31474;45.332;10.230;2022-08-19T10:21:25;23.00;99.90
45765;DHT22;31474;45.332;10.230;2022-08-19T10:23:52;23.10;99.90
45765;DHT22;31474;45.332;10.230;2022-08-19T10:26:22;23.20;99.90
45765;DHT22;31474;45.332;10.230;2022-08-19T10:28:49;23.30;99.90
45765;DHT22;31474;45.332;10.230;2022-08-19T10:31:27;23.40;99.90
45765;DHT22;31474;45.332;10.230;2022-08-19T10:33:53;23.50;99.90
45765;DHT22;31474;45.332;10.230;2022-08-19T10:36:29;23.50;99.90
45765;DHT22;31474;45.332;10.230;2022-08-19T10:38:57;23.60;99.90
45765;DHT22;31474;45.332;10.230;2022-08-19T10:41:26;23.60;99.90
45765;DHT22;31474;45.332;10.230;2022-08-19T10:43:53;23.60;99.90
45765;DHT22;31474;45.332;10.230;2022-08-19T10:46:21;23.70;99.90
45765;DHT22;31474;45.332;10.230;2022-08-19T10:48:47;23.70;99.90
45765;DHT22;31474;45.332;10.230;2022-08-19T10:51:13;23.70;99.90
45765;DHT22;31474;45.332;10.230;2022-08-19T10:53:58;23.80;99.90
45765;DHT22;31474;45.332;10.230;2022-08-19T10:56:24;23.80;99.90
45765;DHT22;31474;45.332;10.230;2022-08-19T10:59:09;23.80;99.90
45765;DHT22;31474;45.332;10.230;2022-08-19T11:01:36;24.00;99.90
45765;DHT22;31474;45.332;10.230;2022-08-19T11:04:04;24.00;99.90
45765;DHT22;31474;45.332;10.230;2022-08-19T11:06:31;24.10;99.90
45765;DHT22;31474;45.332;10.230;2022-08-19T11:08:57;24.20;99.90
45765;DHT22;31474;45.332;10.230;2022-08-19T11:11:23;24.30;99.90
45765;DHT22;31474;45.332;10.230;2022-08-19T11:13:49;24.40;99.90
45765;DHT22;31474;45.332;10.230;2022-08-19T11:16:18;24.40;99.90
45765;DHT22;31474;45.332;10.230;2022-08-19T11:18:47;24.60;99.90
45765;DHT22;31474;45.332;10.230;2022-08-19T11:21:23;24.60;99.90
45765;DHT22;31474;45.332;10.230;2022-08-19T11:23:51;24.60;99.90
45765;DHT22;31474;45.332;10.230;2022-08-19T11:26:18;24.70;99.90
45765;DHT22;31474;45.332;10.230;2022-08-19T11:28:45;24.80;99.90
45765;DHT22;31474;45.332;10.230;2022-08-19T11:31:14;25.00;99.90
45765;DHT22;31474;45.332;10.230;2022-08-19T11:33:40;25.00;99.90
45765;DHT22;31474;45.332;10.230;2022-08-19T11:36:06;25.10;99.90
45765;DHT22;31474;45.332;10.230;2022-08-19T11:38:33;25.10;99.90
45765;DHT22;31474;45.332;10.230;2022-08-19T11:41:03;25.10;99.90
45765;DHT22;31474;45.332;10.230;2022-08-19T11:43:30;25.10;99.90
45765;DHT22;31474;45.332;10.230;2022-08-19T11:45:57;25.20;99.90
45765;DHT22;31474;45.332;10.230;2022-08-19T11:48:24;25.20;99.90
45765;DHT22;31474;45.332;10.230;2022-08-19T11:50:51;25.10;99.90
45765;DHT22;31474;45.332;10.230;2022-08-19T11:53:18;25.00;99.90
45765;DHT22;31474;45.332;10.230;2022-08-19T11:55:46;25.00;99.90
45765;DHT22;31474;45.332;10.230;2022-08-19T11:58:13;25.00;99.90
45765;DHT22;31474;45.332;10.230;2022-08-19T12:00:39;25.00;99.90
45765;DHT22;31474;45.332;10.230;2022-08-19T12:03:06;25.00;99.90
45765;DHT22;31474;45.332;10.230;2022-08-19T12:05:31;25.00;99.90
45765;DHT22;31474;45.332;10.230;2022-08-19T12:07:57;25.00;99.90
45765;DHT22;31474;45.332;10.230;2022-08-19T12:10:23;25.00;99.90
45765;DHT22;31474;45.332;10.230;2022-08-19T12:12:48;25.10;99.90
45765;DHT22;31474;45.332;10.230;2022-08-19T12:15:14;25.10;99.90
45765;DHT22;31474;45.332;10.230;2022-08-19T12:17:41;25.10;99.90
45765;DHT22;31474;45.332;10.230;2022-08-19T12:20:09;25.30;99.90
45765;DHT22;31474;45.332;10.230;2022-08-19T12:22:36;25.30;99.90
45765;DHT22;31474;45.332;10.230;2022-08-19T12:25:03;25.40;99.90
45765;DHT22;31474;45.332;10.230;2022-08-19T12:27:30;25.50;99.90
45765;DHT22;31474;45.332;10.230;2022-08-19T12:29:56;25.50;99.90
45765;DHT22;31474;45.332;10.230;2022-08-19T12:32:22;25.40;99.90
45765;DHT22;31474;45.332;10.230;2022-08-19T12:34:50;25.30;99.90
45765;DHT22;31474;45.332;10.230;2022-08-19T12:37:15;25.20;99.90
45765;DHT22;31474;45.332;10.230;2022-08-19T12:39:42;25.20;99.90
45765;DHT22;31474;45.332;10.230;2022-08-19T12:42:10;25.10;99.90
45765;DHT22;31474;45.332;10.230;2022-08-19T12:44:37;25.10;99.90
45765;DHT22;31474;45.332;10.230;2022-08-19T12:47:04;25.10;99.90
45765;DHT22;31474;45.332;10.230;2022-08-19T12:49:31;25.10;99.90
45765;DHT22;31474;45.332;10.230;2022-08-19T12:52:00;25.10;99.90
45765;DHT22;31474;45.332;10.230;2022-08-19T12:54:26;25.20;99.90
45765;DHT22;31474;45.332;10.230;2022-08-19T12:56:52;25.20;99.90
45765;DHT22;31474;45.332;10.230;2022-08-19T12:59:18;25.20;99.90
45765;DHT22;31474;45.332;10.230;2022-08-19T13:01:45;25.30;99.90
45765;DHT22;31474;45.332;10.230;2022-08-19T13:04:10;25.30;99.90
45765;DHT22;31474;45.332;10.230;2022-08-19T13:06:36;25.40;99.90
45765;DHT22;31474;45.332;10.230;2022-08-19T13:09:03;25.40;99.90
45765;DHT22;31474;45.332;10.230;2022-08-19T13:11:29;25.40;99.90
45765;DHT22;31474;45.332;10.230;2022-08-19T13:13:59;25.50;99.90
45765;DHT22;31474;45.332;10.230;2022-08-19T13:16:25;25.50;99.90
45765;DHT22;31474;45.332;10.230;2022-08-19T13:18:53;25.70;99.90
45765;DHT22;31474;45.332;10.230;2022-08-19T13:21:21;26.00;99.90
45765;DHT22;31474;45.332;10.230;2022-08-19T13:23:48;26.20;99.90
45765;DHT22;31474;45.332;10.230;2022-08-19T13:26:14;26.20;99.90
45765;DHT22;31474;45.332;10.230;2022-08-19T13:28:41;26.30;99.90
45765;DHT22;31474;45.332;10.230;2022-08-19T13:31:27;26.40;99.90
45765;DHT22;31474;45.332;10.230;2022-08-19T13:34:12;26.40;99.90
45765;DHT22;31474;45.332;10.230;2022-08-19T13:36:38;26.40;99.90
45765;DHT22;31474;45.332;10.230;2022-08-19T13:39:05;26.40;99.90
45765;DHT22;31474;45.332;10.230;2022-08-19T13:41:32;26.50;99.90
45765;DHT22;31474;45.332;10.230;2022-08-19T13:43:59;26.60;99.90
45765;DHT22;31474;45.332;10.230;2022-08-19T13:46:24;26.70;99.90
45765;DHT22;31474;45.332;10.230;2022-08-19T13:48:50;26.80;99.90
45765;DHT22;31474;45.332;10.230;2022-08-19T13:51:17;26.90;99.90
45765;DHT22;31474;45.332;10.230;2022-08-19T13:53:43;27.00;99.90
45765;DHT22;31474;45.332;10.230;2022-08-19T13:56:11;27.10;99.90
45765;DHT22;31474;45.332;10.230;2022-08-19T13:58:37;27.20;99.90
45765;DHT22;31474;45.332;10.230;2022-08-19T14:01:04;27.20;99.90
45765;DHT22;31474;45.332;10.230;2022-08-19T14:03:31;27.10;99.90
45765;DHT22;31474;45.332;10.230;2022-08-19T14:05:58;27.10;99.90
45765;DHT22;31474;45.332;10.230;2022-08-19T14:08:25;27.10;99.90
45765;DHT22;31474;45.332;10.230;2022-08-19T14:10:53;27.00;99.90
45765;DHT22;31474;45.332;10.230;2022-08-19T14:13:21;27.00;99.90
45765;DHT22;31474;45.332;10.230;2022-08-19T14:15:47;26.90;99.90
45765;DHT22;31474;45.332;10.230;2022-08-19T14:18:14;27.00;99.90
45765;DHT22;31474;45.332;10.230;2022-08-19T14:20:41;27.00;99.90
45765;DHT22;31474;45.332;10.230;2022-08-19T14:23:07;27.10;99.90
45765;DHT22;31474;45.332;10.230;2022-08-19T14:25:33;27.20;99.90
45765;DHT22;31474;45.332;10.230;2022-08-19T14:28:00;27.30;99.90
45765;DHT22;31474;45.332;10.230;2022-08-19T14:30:28;27.20;99.90
45765;DHT22;31474;45.332;10.230;2022-08-19T14:32:56;27.10;99.90
45765;DHT22;31474;45.332;10.230;2022-08-19T14:35:22;26.90;99.90
45765;DHT22;31474;45.332;10.230;2022-08-19T14:37:49;26.80;99.90
45765;DHT22;31474;45.332;10.230;2022-08-19T14:40:18;26.70;99.90
45765;DHT22;31474;45.332;10.230;2022-08-19T14:42:48;26.50;99.90
45765;DHT22;31474;45.332;10.230;2022-08-19T14:45:14;26.40;99.90
45765;DHT22;31474;45.332;10.230;2022-08-19T14:47:39;26.40;99.90
45765;DHT22;31474;45.332;10.230;2022-08-19T14:50:10;26.40;99.90
45765;DHT22;31474;45.332;10.230;2022-08-19T14:52:36;26.50;99.90
45765;DHT22;31474;45.332;10.230;2022-08-19T14:55:04;26.60;99.90
45765;DHT22;31474;45.332;10.230;2022-08-19T14:57:30;26.60;99.90
45765;DHT22;31474;45.332;10.230;2022-08-19T14:59:55;26.70;99.90
45765;DHT22;31474;45.332;10.230;2022-08-19T15:02:22;26.70;99.90
45765;DHT22;31474;45.332;10.230;2022-08-19T15:04:48;26.80;99.90
45765;DHT22;31474;45.332;10.230;2022-08-19T15:07:15;26.70;99.90
45765;DHT22;31474;45.332;10.230;2022-08-19T15:09:41;26.80;99.90
45765;DHT22;31474;45.332;10.230;2022-08-19T15:12:07;26.70;99.90
45765;DHT22;31474;45.332;10.230;2022-08-19T15:14:36;26.80;99.90
45765;DHT22;31474;45.332;10.230;2022-08-19T15:17:03;26.80;99.90
45765;DHT22;31474;45.332;10.230;2022-08-19T15:19:30;26.80;99.90
45765;DHT22;31474;45.332;10.230;2022-08-19T15:21:57;26.80;99.90
45765;DHT22;31474;45.332;10.230;2022-08-19T15:24:23;26.90;99.90
45765;DHT22;31474;45.332;10.230;2022-08-19T15:26:52;26.80;99.90
45765;DHT22;31474;45.332;10.230;2022-08-19T15:29:18;26.80;99.90
45765;DHT22;31474;45.332;10.230;2022-08-19T15:31:44;26.80;99.90
45765;DHT22;31474;45.332;10.230;2022-08-19T15:34:11;26.80;99.90